sensor_id;sensor_type;location;lat;lon;timestamp;P1;durP1;ratioP1;P2;durP2;ratioP2
5620;SDS011;2832;50.864;12.186;2023-05-28T00:01:41;0.90;;;0.90;;
5620;SDS011;2832;50.864;12.186;2023-05-28T00:04:09;0.90;;;0.90;;
5620;SDS011;2832;50.864;12.186;2023-05-28T00:06:37;0.90;;;0.90;;
5620;SDS011;2832;50.864;12.186;2023-05-28T00:09:07;0.90;;;0.90;;
5620;SDS011;2832;50.864;12.186;2023-05-28T00:11:37;0.90;;;0.90;;
5620;SDS011;2832;50.864;12.186;2023-05-28T00:14:06;0.20;;;0.20;;
5620;SDS011;2832;50.864;12.186;2023-05-28T00:16:34;0.23;;;0.23;;
5620;SDS011;2832;50.864;12.186;2023-05-28T00:19:04;0.90;;;0.90;;
5620;SDS011;2832;50.864;12.186;2023-05-28T00:21:32;1.00;;;1.00;;
5620;SDS011;2832;50.864;12.186;2023-05-28T00:24:06;0.90;;;0.90;;
5620;SDS011;2832;50.864;12.186;2023-05-28T00:26:35;0.90;;;0.90;;
5620;SDS011;2832;50.864;12.186;2023-05-28T00:29:04;0.90;;;0.90;;
5620;SDS011;2832;50.864;12.186;2023-05-28T00:31:32;0.90;;;0.90;;
5620;SDS011;2832;50.864;12.186;2023-05-28T00:34:00;0.90;;;0.90;;
5620;SDS011;2832;50.864;12.186;2023-05-28T00:36:28;1.00;;;1.00;;
5620;SDS011;2832;50.864;12.186;2023-05-28T00:39:00;0.90;;;0.90;;
5620;SDS011;2832;50.864;12.186;2023-05-28T00:41:32;1.00;;;1.00;;
5620;SDS011;2832;50.864;12.186;2023-05-28T00:44:02;1.00;;;1.00;;
5620;SDS011;2832;50.864;12.186;2023-05-28T00:46:31;0.90;;;0.90;;
5620;SDS011;2832;50.864;12.186;2023-05-28T00:49:00;0.90;;;0.90;;
5620;SDS011;2832;50.864;12.186;2023-05-28T00:51:29;0.90;;;0.90;;
5620;SDS011;2832;50.864;12.186;2023-05-28T00:53:58;1.00;;;1.00;;
5620;SDS011;2832;50.864;12.186;2023-05-28T00:56:26;0.90;;;0.90;;
5620;SDS011;2832;50.864;12.186;2023-05-28T00:58:56;0.90;;;0.90;;
5620;SDS011;2832;50.864;12.186;2023-05-28T01:01:25;0.90;;;0.90;;
5620;SDS011;2832;50.864;12.186;2023-05-28T01:03:55;0.80;;;0.80;;
5620;SDS011;2832;50.864;12.186;2023-05-28T01:06:28;0.90;;;0.90;;
5620;SDS011;2832;50.864;12.186;2023-05-28T01:08:56;0.90;;;0.90;;
5620;SDS011;2832;50.864;12.186;2023-05-28T01:11:24;0.90;;;0.90;;
5620;SDS011;2832;50.864;12.186;2023-05-28T01:13:53;0.90;;;0.90;;
5620;SDS011;2832;50.864;12.186;2023-05-28T01:16:23;0.90;;;0.90;;
5620;SDS011;2832;50.864;12.186;2023-05-28T01:18:54;0.90;;;0.90;;
5620;SDS011;2832;50.864;12.186;2023-05-28T01:21:23;0.90;;;0.90;;
5620;SDS011;2832;50.864;12.186;2023-05-28T01:23:55;0.93;;;0.93;;
5620;SDS011;2832;50.864;12.186;2023-05-28T01:26:26;0.90;;;0.90;;
5620;SDS011;2832;50.864;12.186;2023-05-28T01:28:57;0.90;;;0.90;;
5620;SDS011;2832;50.864;12.186;2023-05-28T01:31:30;0.90;;;0.90;;
5620;SDS011;2832;50.864;12.186;2023-05-28T01:33:58;0.93;;;0.93;;
5620;SDS011;2832;50.864;12.186;2023-05-28T01:36:27;0.80;;;0.80;;
5620;SDS011;2832;50.864;12.186;2023-05-28T01:38:59;0.90;;;0.90;;
5620;SDS011;2832;50.864;12.186;2023-05-28T01:41:28;0.90;;;0.90;;
5620;SDS011;2832;50.864;12.186;2023-05-28T01:43:56;0.90;;;0.90;;
5620;SDS011;2832;50.864;12.186;2023-05-28T01:46:27;0.90;;;0.90;;
5620;SDS011;2832;50.864;12.186;2023-05-28T01:48:55;0.90;;;0.90;;
5620;SDS011;2832;50.864;12.186;2023-05-28T01:51:23;1.00;;;1.00;;
5620;SDS011;2832;50.864;12.186;2023-05-28T01:53:53;0.90;;;0.90;;
5620;SDS011;2832;50.864;12.186;2023-05-28T01:56:23;0.90;;;0.90;;
5620;SDS011;2832;50.864;12.186;2023-05-28T01:58:51;0.90;;;0.90;;
5620;SDS011;2832;50.864;12.186;2023-05-28T02:01:20;1.00;;;1.00;;
5620;SDS011;2832;50.864;12.186;2023-05-28T02:03:54;1.00;;;1.00;;
5620;SDS011;2832;50.864;12.186;2023-05-28T02:06:23;1.00;;;1.00;;
5620;SDS011;2832;50.864;12.186;2023-05-28T02:08:51;0.90;;;0.90;;
5620;SDS011;2832;50.864;12.186;2023-05-28T02:11:19;1.00;;;1.00;;
5620;SDS011;2832;50.864;12.186;2023-05-28T02:13:49;0.90;;;0.90;;
5620;SDS011;2832;50.864;12.186;2023-05-28T02:16:18;0.90;;;0.90;;
5620;SDS011;2832;50.864;12.186;2023-05-28T02:18:49;1.00;;;1.00;;
5620;SDS011;2832;50.864;12.186;2023-05-28T02:21:18;0.90;;;0.90;;
5620;SDS011;2832;50.864;12.186;2023-05-28T02:23:47;0.90;;;0.90;;
5620;SDS011;2832;50.864;12.186;2023-05-28T02:26:17;0.80;;;0.80;;
5620;SDS011;2832;50.864;12.186;2023-05-28T02:28:46;0.90;;;0.90;;
5620;SDS011;2832;50.864;12.186;2023-05-28T02:31:16;1.00;;;1.00;;
5620;SDS011;2832;50.864;12.186;2023-05-28T02:33:44;0.90;;;0.90;;
5620;SDS011;2832;50.864;12.186;2023-05-28T02:36:13;1.10;;;1.10;;
5620;SDS011;2832;50.864;12.186;2023-05-28T02:38:43;1.00;;;1.00;;
5620;SDS011;2832;50.864;12.186;2023-05-28T02:41:12;0.90;;;0.90;;
5620;SDS011;2832;50.864;12.186;2023-05-28T02:43:40;0.90;;;0.90;;
5620;SDS011;2832;50.864;12.186;2023-05-28T02:46:09;0.83;;;0.83;;
5620;SDS011;2832;50.864;12.186;2023-05-28T02:48:38;1.00;;;1.00;;
5620;SDS011;2832;50.864;12.186;2023-05-28T02:51:07;0.83;;;0.83;;
5620;SDS011;2832;50.864;12.186;2023-05-28T02:53:36;1.00;;;1.00;;
5620;SDS011;2832;50.864;12.186;2023-05-28T02:56:05;0.90;;;0.90;;
5620;SDS011;2832;50.864;12.186;2023-05-28T02:58:33;0.90;;;0.90;;
5620;SDS011;2832;50.864;12.186;2023-05-28T03:01:02;0.90;;;0.90;;
5620;SDS011;2832;50.864;12.186;2023-05-28T03:03:30;0.93;;;0.93;;
5620;SDS011;2832;50.864;12.186;2023-05-28T03:06:01;0.97;;;0.97;;
5620;SDS011;2832;50.864;12.186;2023-05-28T03:08:29;0.90;;;0.90;;
5620;SDS011;2832;50.864;12.186;2023-05-28T03:10:57;1.00;;;1.00;;
5620;SDS011;2832;50.864;12.186;2023-05-28T03:13:26;0.90;;;0.90;;
5620;SDS011;2832;50.864;12.186;2023-05-28T03:15:54;0.97;;;0.97;;
5620;SDS011;2832;50.864;12.186;2023-05-28T03:18:25;0.90;;;0.90;;
5620;SDS011;2832;50.864;12.186;2023-05-28T03:20:53;1.00;;;1.00;;
5620;SDS011;2832;50.864;12.186;2023-05-28T03:23:22;0.90;;;0.90;;
5620;SDS011;2832;50.864;12.186;2023-05-28T03:25:50;0.90;;;0.90;;
5620;SDS011;2832;50.864;12.186;2023-05-28T03:28:18;0.90;;;0.90;;
5620;SDS011;2832;50.864;12.186;2023-05-28T03:30:47;1.00;;;1.00;;
5620;SDS011;2832;50.864;12.186;2023-05-28T03:33:15;0.80;;;0.80;;
5620;SDS011;2832;50.864;12.186;2023-05-28T03:35:43;0.90;;;0.90;;
5620;SDS011;2832;50.864;12.186;2023-05-28T03:38:20;0.80;;;0.80;;
5620;SDS011;2832;50.864;12.186;2023-05-28T03:40:49;0.90;;;0.90;;
5620;SDS011;2832;50.864;12.186;2023-05-28T03:43:17;0.90;;;0.90;;
5620;SDS011;2832;50.864;12.186;2023-05-28T03:45:45;0.90;;;0.90;;
5620;SDS011;2832;50.864;12.186;2023-05-28T03:48:13;0.80;;;0.80;;
5620;SDS011;2832;50.864;12.186;2023-05-28T03:50:41;0.80;;;0.80;;
5620;SDS011;2832;50.864;12.186;2023-05-28T03:53:09;0.90;;;0.90;;
5620;SDS011;2832;50.864;12.186;2023-05-28T03:55:37;0.90;;;0.90;;
5620;SDS011;2832;50.864;12.186;2023-05-28T03:58:08;0.90;;;0.90;;
5620;SDS011;2832;50.864;12.186;2023-05-28T04:00:41;0.90;;;0.90;;
5620;SDS011;2832;50.864;12.186;2023-05-28T04:03:08;0.90;;;0.90;;
5620;SDS011;2832;50.864;12.186;2023-05-28T04:05:38;0.90;;;0.90;;
5620;SDS011;2832;50.864;12.186;2023-05-28T04:08:07;0.90;;;0.90;;
5620;SDS011;2832;50.864;12.186;2023-05-28T04:10:36;0.80;;;0.80;;
5620;SDS011;2832;50.864;12.186;2023-05-28T04:13:04;0.90;;;0.90;;
5620;SDS011;2832;50.864;12.186;2023-05-28T04:15:41;0.90;;;0.90;;
5620;SDS011;2832;50.864;12.186;2023-05-28T04:18:09;0.90;;;0.90;;
5620;SDS011;2832;50.864;12.186;2023-05-28T04:20:37;0.90;;;0.90;;
5620;SDS011;2832;50.864;12.186;2023-05-28T04:23:07;0.20;;;0.20;;
5620;SDS011;2832;50.864;12.186;2023-05-28T04:25:36;0.20;;;0.20;;
5620;SDS011;2832;50.864;12.186;2023-05-28T04:28:05;0.20;;;0.20;;
5620;SDS011;2832;50.864;12.186;2023-05-28T04:30:33;0.20;;;0.20;;
5620;SDS011;2832;50.864;12.186;2023-05-28T04:33:03;0.20;;;0.20;;
5620;SDS011;2832;50.864;12.186;2023-05-28T04:35:35;0.20;;;0.20;;
5620;SDS011;2832;50.864;12.186;2023-05-28T04:38:06;0.20;;;0.20;;
5620;SDS011;2832;50.864;12.186;2023-05-28T04:40:39;0.13;;;0.13;;
5620;SDS011;2832;50.864;12.186;2023-05-28T04:43:07;0.20;;;0.20;;
5620;SDS011;2832;50.864;12.186;2023-05-28T04:45:35;0.93;;;0.93;;
5620;SDS011;2832;50.864;12.186;2023-05-28T04:48:12;0.90;;;0.90;;
5620;SDS011;2832;50.864;12.186;2023-05-28T04:50:42;0.90;;;0.90;;
5620;SDS011;2832;50.864;12.186;2023-05-28T04:53:10;0.90;;;0.90;;
5620;SDS011;2832;50.864;12.186;2023-05-28T04:55:48;0.90;;;0.90;;
5620;SDS011;2832;50.864;12.186;2023-05-28T04:58:16;0.90;;;0.90;;
5620;SDS011;2832;50.864;12.186;2023-05-28T05:00:44;1.00;;;1.00;;
5620;SDS011;2832;50.864;12.186;2023-05-28T05:03:13;1.00;;;1.00;;
5620;SDS011;2832;50.864;12.186;2023-05-28T05:05:42;1.00;;;1.00;;
5620;SDS011;2832;50.864;12.186;2023-05-28T05:08:10;0.90;;;0.90;;
5620;SDS011;2832;50.864;12.186;2023-05-28T05:10:42;0.93;;;0.93;;
5620;SDS011;2832;50.864;12.186;2023-05-28T05:13:10;0.90;;;0.90;;
5620;SDS011;2832;50.864;12.186;2023-05-28T05:15:39;0.90;;;0.90;;
5620;SDS011;2832;50.864;12.186;2023-05-28T05:18:08;0.97;;;0.97;;
5620;SDS011;2832;50.864;12.186;2023-05-28T05:20:38;0.90;;;0.90;;
5620;SDS011;2832;50.864;12.186;2023-05-28T05:23:07;1.00;;;1.00;;
5620;SDS011;2832;50.864;12.186;2023-05-28T05:25:38;1.00;;;1.00;;
5620;SDS011;2832;50.864;12.186;2023-05-28T05:28:11;0.87;;;0.87;;
5620;SDS011;2832;50.864;12.186;2023-05-28T05:30:42;0.90;;;0.90;;
5620;SDS011;2832;50.864;12.186;2023-05-28T05:33:11;0.90;;;0.90;;
5620;SDS011;2832;50.864;12.186;2023-05-28T05:35:43;0.90;;;0.90;;
5620;SDS011;2832;50.864;12.186;2023-05-28T05:38:15;0.90;;;0.90;;
5620;SDS011;2832;50.864;12.186;2023-05-28T05:40:46;0.90;;;0.90;;
5620;SDS011;2832;50.864;12.186;2023-05-28T05:43:18;0.90;;;0.90;;
5620;SDS011;2832;50.864;12.186;2023-05-28T05:45:51;0.90;;;0.90;;
5620;SDS011;2832;50.864;12.186;2023-05-28T05:48:19;0.90;;;0.90;;
5620;SDS011;2832;50.864;12.186;2023-05-28T05:50:51;0.90;;;0.90;;
5620;SDS011;2832;50.864;12.186;2023-05-28T05:53:24;0.90;;;0.90;;
5620;SDS011;2832;50.864;12.186;2023-05-28T05:55:53;1.00;;;1.00;;
5620;SDS011;2832;50.864;12.186;2023-05-28T05:58:21;0.90;;;0.90;;
5620;SDS011;2832;50.864;12.186;2023-05-28T06:00:49;0.93;;;0.93;;
5620;SDS011;2832;50.864;12.186;2023-05-28T06:03:18;0.90;;;0.90;;
5620;SDS011;2832;50.864;12.186;2023-05-28T06:05:46;0.90;;;0.90;;
5620;SDS011;2832;50.864;12.186;2023-05-28T06:08:16;0.90;;;0.90;;
5620;SDS011;2832;50.864;12.186;2023-05-28T06:10:44;0.90;;;0.90;;
5620;SDS011;2832;50.864;12.186;2023-05-28T06:13:13;0.90;;;0.90;;
5620;SDS011;2832;50.864;12.186;2023-05-28T06:15:42;0.90;;;0.90;;
5620;SDS011;2832;50.864;12.186;2023-05-28T06:18:10;0.90;;;0.90;;
5620;SDS011;2832;50.864;12.186;2023-05-28T06:20:42;1.00;;;1.00;;
5620;SDS011;2832;50.864;12.186;2023-05-28T06:23:21;0.90;;;0.90;;
5620;SDS011;2832;50.864;12.186;2023-05-28T06:25:50;0.90;;;0.90;;
5620;SDS011;2832;50.864;12.186;2023-05-28T06:28:19;0.90;;;0.90;;
5620;SDS011;2832;50.864;12.186;2023-05-28T06:30:47;0.90;;;0.90;;
5620;SDS011;2832;50.864;12.186;2023-05-28T06:33:20;0.90;;;0.90;;
5620;SDS011;2832;50.864;12.186;2023-05-28T06:36:04;0.90;;;0.90;;
5620;SDS011;2832;50.864;12.186;2023-05-28T06:38:36;0.90;;;0.90;;
5620;SDS011;2832;50.864;12.186;2023-05-28T06:41:04;0.90;;;0.90;;
5620;SDS011;2832;50.864;12.186;2023-05-28T06:43:32;0.90;;;0.90;;
5620;SDS011;2832;50.864;12.186;2023-05-28T06:46:01;0.27;;;0.27;;
5620;SDS011;2832;50.864;12.186;2023-05-28T06:48:29;0.27;;;0.27;;
5620;SDS011;2832;50.864;12.186;2023-05-28T06:50:59;0.20;;;0.20;;
5620;SDS011;2832;50.864;12.186;2023-05-28T06:53:27;0.20;;;0.20;;
5620;SDS011;2832;50.864;12.186;2023-05-28T06:55:58;0.20;;;0.20;;
5620;SDS011;2832;50.864;12.186;2023-05-28T06:58:28;0.20;;;0.20;;
5620;SDS011;2832;50.864;12.186;2023-05-28T07:00:58;0.20;;;0.20;;
5620;SDS011;2832;50.864;12.186;2023-05-28T07:03:36;0.20;;;0.20;;
5620;SDS011;2832;50.864;12.186;2023-05-28T07:06:05;0.10;;;0.10;;
5620;SDS011;2832;50.864;12.186;2023-05-28T07:08:34;0.20;;;0.20;;
5620;SDS011;2832;50.864;12.186;2023-05-28T07:11:08;0.10;;;0.10;;
5620;SDS011;2832;50.864;12.186;2023-05-28T07:13:37;0.20;;;0.20;;
5620;SDS011;2832;50.864;12.186;2023-05-28T07:16:09;0.20;;;0.20;;
5620;SDS011;2832;50.864;12.186;2023-05-28T07:18:44;0.20;;;0.20;;
5620;SDS011;2832;50.864;12.186;2023-05-28T07:21:18;0.10;;;0.10;;
5620;SDS011;2832;50.864;12.186;2023-05-28T07:23:47;0.20;;;0.20;;
5620;SDS011;2832;50.864;12.186;2023-05-28T07:26:17;0.20;;;0.20;;
5620;SDS011;2832;50.864;12.186;2023-05-28T07:28:46;0.20;;;0.20;;
5620;SDS011;2832;50.864;12.186;2023-05-28T07:31:23;0.20;;;0.20;;
5620;SDS011;2832;50.864;12.186;2023-05-28T07:33:52;0.20;;;0.20;;
5620;SDS011;2832;50.864;12.186;2023-05-28T07:36:20;0.90;;;0.90;;
5620;SDS011;2832;50.864;12.186;2023-05-28T07:38:48;0.90;;;0.90;;
5620;SDS011;2832;50.864;12.186;2023-05-28T07:41:19;0.90;;;0.90;;
5620;SDS011;2832;50.864;12.186;2023-05-28T07:43:48;0.90;;;0.90;;
5620;SDS011;2832;50.864;12.186;2023-05-28T07:46:16;0.90;;;0.90;;
5620;SDS011;2832;50.864;12.186;2023-05-28T07:48:47;0.93;;;0.93;;
5620;SDS011;2832;50.864;12.186;2023-05-28T07:51:19;1.00;;;1.00;;
5620;SDS011;2832;50.864;12.186;2023-05-28T07:53:49;0.90;;;0.90;;
5620;SDS011;2832;50.864;12.186;2023-05-28T07:56:19;0.90;;;0.90;;
5620;SDS011;2832;50.864;12.186;2023-05-28T07:58:48;0.93;;;0.93;;
5620;SDS011;2832;50.864;12.186;2023-05-28T08:01:20;1.00;;;1.00;;
5620;SDS011;2832;50.864;12.186;2023-05-28T08:04:05;0.90;;;0.90;;
5620;SDS011;2832;50.864;12.186;2023-05-28T08:06:35;0.90;;;0.90;;
5620;SDS011;2832;50.864;12.186;2023-05-28T08:09:07;0.90;;;0.90;;
5620;SDS011;2832;50.864;12.186;2023-05-28T08:11:58;0.90;;;0.90;;
5620;SDS011;2832;50.864;12.186;2023-05-28T08:14:47;0.90;;;0.90;;
5620;SDS011;2832;50.864;12.186;2023-05-28T08:17:16;0.90;;;0.90;;
5620;SDS011;2832;50.864;12.186;2023-05-28T08:19:47;0.90;;;0.90;;
5620;SDS011;2832;50.864;12.186;2023-05-28T08:22:16;1.00;;;1.00;;
5620;SDS011;2832;50.864;12.186;2023-05-28T08:24:46;0.90;;;0.90;;
5620;SDS011;2832;50.864;12.186;2023-05-28T08:27:16;0.90;;;0.90;;
5620;SDS011;2832;50.864;12.186;2023-05-28T08:29:44;0.93;;;0.93;;
5620;SDS011;2832;50.864;12.186;2023-05-28T08:32:13;0.90;;;0.90;;
5620;SDS011;2832;50.864;12.186;2023-05-28T08:34:45;0.90;;;0.90;;
5620;SDS011;2832;50.864;12.186;2023-05-28T08:37:23;1.00;;;1.00;;
5620;SDS011;2832;50.864;12.186;2023-05-28T08:40:12;1.00;;;1.00;;
5620;SDS011;2832;50.864;12.186;2023-05-28T08:42:43;0.90;;;0.90;;
5620;SDS011;2832;50.864;12.186;2023-05-28T08:45:11;0.90;;;0.90;;
5620;SDS011;2832;50.864;12.186;2023-05-28T08:47:39;0.90;;;0.90;;
5620;SDS011;2832;50.864;12.186;2023-05-28T08:50:13;1.00;;;1.00;;
5620;SDS011;2832;50.864;12.186;2023-05-28T08:52:42;0.90;;;0.90;;
5620;SDS011;2832;50.864;12.186;2023-05-28T08:55:16;0.90;;;0.90;;
5620;SDS011;2832;50.864;12.186;2023-05-28T08:57:50;1.00;;;1.00;;
5620;SDS011;2832;50.864;12.186;2023-05-28T09:00:22;0.90;;;0.90;;
5620;SDS011;2832;50.864;12.186;2023-05-28T09:02:57;0.90;;;0.90;;
5620;SDS011;2832;50.864;12.186;2023-05-28T09:05:25;0.90;;;0.90;;
5620;SDS011;2832;50.864;12.186;2023-05-28T09:07:56;0.90;;;0.90;;
5620;SDS011;2832;50.864;12.186;2023-05-28T09:10:28;1.00;;;1.00;;
5620;SDS011;2832;50.864;12.186;2023-05-28T09:12:58;0.90;;;0.90;;
5620;SDS011;2832;50.864;12.186;2023-05-28T09:15:27;1.03;;;1.03;;
5620;SDS011;2832;50.864;12.186;2023-05-28T09:17:58;1.00;;;1.00;;
5620;SDS011;2832;50.864;12.186;2023-05-28T09:20:27;1.10;;;1.10;;
5620;SDS011;2832;50.864;12.186;2023-05-28T09:23:02;0.90;;;0.90;;
5620;SDS011;2832;50.864;12.186;2023-05-28T09:25:34;0.90;;;0.90;;
5620;SDS011;2832;50.864;12.186;2023-05-28T09:28:11;1.00;;;1.00;;
5620;SDS011;2832;50.864;12.186;2023-05-28T09:30:44;0.90;;;0.90;;
5620;SDS011;2832;50.864;12.186;2023-05-28T09:33:12;0.93;;;0.93;;
5620;SDS011;2832;50.864;12.186;2023-05-28T09:35:43;0.90;;;0.90;;
5620;SDS011;2832;50.864;12.186;2023-05-28T09:38:37;0.90;;;0.90;;
5620;SDS011;2832;50.864;12.186;2023-05-28T09:41:19;0.90;;;0.90;;
5620;SDS011;2832;50.864;12.186;2023-05-28T09:43:59;0.90;;;0.90;;
5620;SDS011;2832;50.864;12.186;2023-05-28T09:46:28;0.90;;;0.90;;
5620;SDS011;2832;50.864;12.186;2023-05-28T09:49:04;0.90;;;0.90;;
5620;SDS011;2832;50.864;12.186;2023-05-28T09:51:37;0.90;;;0.90;;
5620;SDS011;2832;50.864;12.186;2023-05-28T09:54:14;0.90;;;0.90;;
5620;SDS011;2832;50.864;12.186;2023-05-28T09:56:48;1.00;;;1.00;;
5620;SDS011;2832;50.864;12.186;2023-05-28T09:59:22;0.90;;;0.90;;
5620;SDS011;2832;50.864;12.186;2023-05-28T10:02:09;0.80;;;0.80;;
5620;SDS011;2832;50.864;12.186;2023-05-28T10:04:53;0.90;;;0.90;;
5620;SDS011;2832;50.864;12.186;2023-05-28T10:07:30;0.97;;;0.97;;
5620;SDS011;2832;50.864;12.186;2023-05-28T10:10:00;0.90;;;0.90;;
5620;SDS011;2832;50.864;12.186;2023-05-28T10:12:30;0.90;;;0.90;;
5620;SDS011;2832;50.864;12.186;2023-05-28T10:15:04;0.90;;;0.90;;
5620;SDS011;2832;50.864;12.186;2023-05-28T10:17:34;1.00;;;1.00;;
5620;SDS011;2832;50.864;12.186;2023-05-28T10:20:05;1.00;;;1.00;;
5620;SDS011;2832;50.864;12.186;2023-05-28T10:22:36;0.90;;;0.90;;
5620;SDS011;2832;50.864;12.186;2023-05-28T10:25:05;0.90;;;0.90;;
5620;SDS011;2832;50.864;12.186;2023-05-28T10:27:34;0.90;;;0.90;;
5620;SDS011;2832;50.864;12.186;2023-05-28T10:30:08;0.90;;;0.90;;
5620;SDS011;2832;50.864;12.186;2023-05-28T10:32:42;1.00;;;1.00;;
5620;SDS011;2832;50.864;12.186;2023-05-28T10:35:15;0.97;;;0.97;;
5620;SDS011;2832;50.864;12.186;2023-05-28T10:37:49;0.80;;;0.80;;
5620;SDS011;2832;50.864;12.186;2023-05-28T10:40:25;0.87;;;0.87;;
5620;SDS011;2832;50.864;12.186;2023-05-28T10:46:34;0.90;;;0.90;;
5620;SDS011;2832;50.864;12.186;2023-05-28T10:49:18;0.90;;;0.90;;
5620;SDS011;2832;50.864;12.186;2023-05-28T10:51:54;0.90;;;0.90;;
5620;SDS011;2832;50.864;12.186;2023-05-28T10:54:41;0.90;;;0.90;;
5620;SDS011;2832;50.864;12.186;2023-05-28T10:57:18;0.90;;;0.90;;
5620;SDS011;2832;50.864;12.186;2023-05-28T10:59:53;0.97;;;0.97;;
5620;SDS011;2832;50.864;12.186;2023-05-28T11:02:38;0.90;;;0.90;;
5620;SDS011;2832;50.864;12.186;2023-05-28T11:05:23;0.20;;;0.20;;
5620;SDS011;2832;50.864;12.186;2023-05-28T11:07:56;0.20;;;0.20;;
5620;SDS011;2832;50.864;12.186;2023-05-28T11:10:27;0.20;;;0.20;;
5620;SDS011;2832;50.864;12.186;2023-05-28T11:12:56;0.10;;;0.10;;
5620;SDS011;2832;50.864;12.186;2023-05-28T11:15:42;0.10;;;0.10;;
5620;SDS011;2832;50.864;12.186;2023-05-28T11:18:19;0.20;;;0.20;;
5620;SDS011;2832;50.864;12.186;2023-05-28T11:20:55;0.20;;;0.20;;
5620;SDS011;2832;50.864;12.186;2023-05-28T11:23:31;0.10;;;0.10;;
5620;SDS011;2832;50.864;12.186;2023-05-28T11:26:05;0.10;;;0.10;;
5620;SDS011;2832;50.864;12.186;2023-05-28T11:28:48;0.10;;;0.10;;
5620;SDS011;2832;50.864;12.186;2023-05-28T11:31:19;0.80;;;0.80;;
5620;SDS011;2832;50.864;12.186;2023-05-28T11:34:00;0.90;;;0.90;;
5620;SDS011;2832;50.864;12.186;2023-05-28T11:36:40;0.90;;;0.90;;
5620;SDS011;2832;50.864;12.186;2023-05-28T11:39:16;0.90;;;0.90;;
5620;SDS011;2832;50.864;12.186;2023-05-28T11:41:52;1.00;;;1.00;;
5620;SDS011;2832;50.864;12.186;2023-05-28T11:44:23;0.90;;;0.90;;
5620;SDS011;2832;50.864;12.186;2023-05-28T11:46:54;0.90;;;0.90;;
5620;SDS011;2832;50.864;12.186;2023-05-28T11:49:38;0.90;;;0.90;;
5620;SDS011;2832;50.864;12.186;2023-05-28T11:52:13;0.90;;;0.90;;
5620;SDS011;2832;50.864;12.186;2023-05-28T11:54:45;0.90;;;0.90;;
5620;SDS011;2832;50.864;12.186;2023-05-28T11:57:20;0.90;;;0.90;;
5620;SDS011;2832;50.864;12.186;2023-05-28T11:59:58;0.90;;;0.90;;
5620;SDS011;2832;50.864;12.186;2023-05-28T12:02:40;0.90;;;0.90;;
5620;SDS011;2832;50.864;12.186;2023-05-28T12:05:39;0.90;;;0.90;;
5620;SDS011;2832;50.864;12.186;2023-05-28T12:08:37;0.90;;;0.90;;
5620;SDS011;2832;50.864;12.186;2023-05-28T12:11:12;0.90;;;0.90;;
5620;SDS011;2832;50.864;12.186;2023-05-28T12:13:50;0.80;;;0.80;;
5620;SDS011;2832;50.864;12.186;2023-05-28T12:16:41;0.83;;;0.83;;
5620;SDS011;2832;50.864;12.186;2023-05-28T12:19:31;0.90;;;0.90;;
5620;SDS011;2832;50.864;12.186;2023-05-28T12:25:20;0.90;;;0.90;;
5620;SDS011;2832;50.864;12.186;2023-05-28T12:28:01;0.90;;;0.90;;
5620;SDS011;2832;50.864;12.186;2023-05-28T12:30:46;0.90;;;0.90;;
5620;SDS011;2832;50.864;12.186;2023-05-28T12:33:26;0.90;;;0.90;;
5620;SDS011;2832;50.864;12.186;2023-05-28T12:36:05;0.80;;;0.80;;
5620;SDS011;2832;50.864;12.186;2023-05-28T12:38:46;0.80;;;0.80;;
5620;SDS011;2832;50.864;12.186;2023-05-28T12:41:17;0.80;;;0.80;;
5620;SDS011;2832;50.864;12.186;2023-05-28T12:43:47;0.80;;;0.80;;
5620;SDS011;2832;50.864;12.186;2023-05-28T12:46:19;0.80;;;0.80;;
5620;SDS011;2832;50.864;12.186;2023-05-28T12:48:55;0.90;;;0.90;;
5620;SDS011;2832;50.864;12.186;2023-05-28T12:51:39;0.80;;;0.80;;
5620;SDS011;2832;50.864;12.186;2023-05-28T12:54:47;0.90;;;0.90;;
5620;SDS011;2832;50.864;12.186;2023-05-28T12:57:21;0.97;;;0.97;;
5620;SDS011;2832;50.864;12.186;2023-05-28T12:59:50;0.90;;;0.90;;
5620;SDS011;2832;50.864;12.186;2023-05-28T13:02:24;0.90;;;0.90;;
5620;SDS011;2832;50.864;12.186;2023-05-28T13:04:58;0.90;;;0.90;;
5620;SDS011;2832;50.864;12.186;2023-05-28T13:07:30;0.93;;;0.93;;
5620;SDS011;2832;50.864;12.186;2023-05-28T13:10:14;0.80;;;0.80;;
5620;SDS011;2832;50.864;12.186;2023-05-28T13:12:45;0.80;;;0.80;;
5620;SDS011;2832;50.864;12.186;2023-05-28T13:15:17;0.80;;;0.80;;
5620;SDS011;2832;50.864;12.186;2023-05-28T13:17:49;0.90;;;0.90;;
5620;SDS011;2832;50.864;12.186;2023-05-28T13:20:20;0.90;;;0.90;;
5620;SDS011;2832;50.864;12.186;2023-05-28T13:22:54;0.80;;;0.80;;
5620;SDS011;2832;50.864;12.186;2023-05-28T13:25:31;0.90;;;0.90;;
5620;SDS011;2832;50.864;12.186;2023-05-28T13:28:25;0.90;;;0.90;;
5620;SDS011;2832;50.864;12.186;2023-05-28T13:30:54;1.00;;;1.00;;
5620;SDS011;2832;50.864;12.186;2023-05-28T13:33:26;0.80;;;0.80;;
5620;SDS011;2832;50.864;12.186;2023-05-28T13:36:12;0.90;;;0.90;;
5620;SDS011;2832;50.864;12.186;2023-05-28T13:38:52;0.90;;;0.90;;
5620;SDS011;2832;50.864;12.186;2023-05-28T13:41:43;0.90;;;0.90;;
5620;SDS011;2832;50.864;12.186;2023-05-28T13:44:17;0.90;;;0.90;;
5620;SDS011;2832;50.864;12.186;2023-05-28T13:46:50;0.80;;;0.80;;
5620;SDS011;2832;50.864;12.186;2023-05-28T13:49:21;0.90;;;0.90;;
5620;SDS011;2832;50.864;12.186;2023-05-28T13:52:08;0.80;;;0.80;;
5620;SDS011;2832;50.864;12.186;2023-05-28T13:54:56;0.87;;;0.87;;
5620;SDS011;2832;50.864;12.186;2023-05-28T13:57:30;0.80;;;0.80;;
5620;SDS011;2832;50.864;12.186;2023-05-28T13:59:59;0.83;;;0.83;;
5620;SDS011;2832;50.864;12.186;2023-05-28T14:02:46;0.90;;;0.90;;
5620;SDS011;2832;50.864;12.186;2023-05-28T14:05:22;0.80;;;0.80;;
5620;SDS011;2832;50.864;12.186;2023-05-28T14:08:32;0.90;;;0.90;;
5620;SDS011;2832;50.864;12.186;2023-05-28T14:11:27;0.90;;;0.90;;
5620;SDS011;2832;50.864;12.186;2023-05-28T14:14:17;0.90;;;0.90;;
5620;SDS011;2832;50.864;12.186;2023-05-28T14:16:48;0.80;;;0.80;;
5620;SDS011;2832;50.864;12.186;2023-05-28T14:19:25;0.90;;;0.90;;
5620;SDS011;2832;50.864;12.186;2023-05-28T14:22:08;0.80;;;0.80;;
5620;SDS011;2832;50.864;12.186;2023-05-28T14:25:04;0.80;;;0.80;;
5620;SDS011;2832;50.864;12.186;2023-05-28T14:27:41;0.80;;;0.80;;
5620;SDS011;2832;50.864;12.186;2023-05-28T14:30:18;0.80;;;0.80;;
5620;SDS011;2832;50.864;12.186;2023-05-28T14:32:48;0.90;;;0.90;;
5620;SDS011;2832;50.864;12.186;2023-05-28T14:35:25;0.90;;;0.90;;
5620;SDS011;2832;50.864;12.186;2023-05-28T14:37:56;0.80;;;0.80;;
5620;SDS011;2832;50.864;12.186;2023-05-28T14:40:39;0.90;;;0.90;;
5620;SDS011;2832;50.864;12.186;2023-05-28T14:43:10;0.90;;;0.90;;
5620;SDS011;2832;50.864;12.186;2023-05-28T14:45:45;0.80;;;0.80;;
5620;SDS011;2832;50.864;12.186;2023-05-28T14:48:37;0.90;;;0.90;;
5620;SDS011;2832;50.864;12.186;2023-05-28T14:51:10;0.80;;;0.80;;
5620;SDS011;2832;50.864;12.186;2023-05-28T14:53:49;0.80;;;0.80;;
5620;SDS011;2832;50.864;12.186;2023-05-28T14:56:48;0.83;;;0.83;;
5620;SDS011;2832;50.864;12.186;2023-05-28T14:59:30;0.90;;;0.90;;
5620;SDS011;2832;50.864;12.186;2023-05-28T15:02:03;0.80;;;0.80;;
5620;SDS011;2832;50.864;12.186;2023-05-28T15:04:45;0.80;;;0.80;;
5620;SDS011;2832;50.864;12.186;2023-05-28T15:07:23;0.87;;;0.87;;
5620;SDS011;2832;50.864;12.186;2023-05-28T15:09:57;0.80;;;0.80;;
5620;SDS011;2832;50.864;12.186;2023-05-28T15:15:18;0.90;;;0.90;;
5620;SDS011;2832;50.864;12.186;2023-05-28T15:21:28;0.80;;;0.80;;
5620;SDS011;2832;50.864;12.186;2023-05-28T15:23:58;0.80;;;0.80;;
5620;SDS011;2832;50.864;12.186;2023-05-28T15:26:29;0.90;;;0.90;;
5620;SDS011;2832;50.864;12.186;2023-05-28T15:29:12;0.90;;;0.90;;
5620;SDS011;2832;50.864;12.186;2023-05-28T15:31:55;0.90;;;0.90;;
5620;SDS011;2832;50.864;12.186;2023-05-28T15:34:31;0.80;;;0.80;;
5620;SDS011;2832;50.864;12.186;2023-05-28T15:37:03;0.90;;;0.90;;
5620;SDS011;2832;50.864;12.186;2023-05-28T15:40:04;0.80;;;0.80;;
5620;SDS011;2832;50.864;12.186;2023-05-28T15:42:41;0.80;;;0.80;;
5620;SDS011;2832;50.864;12.186;2023-05-28T15:45:19;0.80;;;0.80;;
5620;SDS011;2832;50.864;12.186;2023-05-28T15:47:53;0.80;;;0.80;;
5620;SDS011;2832;50.864;12.186;2023-05-28T15:50:34;0.80;;;0.80;;